Time;durP1;ratioP1;P1;durP2;ratioP2;P2;SDS_P1;SDS_P2;PMS_P1;PMS_P2;Temp;Humidity;BMP_temperature;BMP_pressure;BME280_temperature;BME280_humidity;BME280_pressure;Samples;Min_cycle;Max_cycle;Signal;HPM_P1;HPM_P2
2023/09/03 03:35:10;;;;;;;13.60;9.48;;;;;;;18.01;48.82;102110.63;4834512;29;20092;-86
2023/09/03 03:37:38;;;;;;;14.15;10.40;;;;;;;18.03;48.50;102111.34;4896764;29;20044;-87
2023/09/03 04:41:56;;;;;;;19.50;13.82;;;;;;;17.52;49.61;102145.88;4970772;28;20049;-87
2023/09/03 04:44:25;;;;;;;24.08;15.98;;;;;;;17.54;49.68;102154.03;4938646;28;20054;-87
2023/09/03 06:44:05;;;;;;;21.10;14.63;;;;;;;17.45;52.25;102305.25;5005030;28;20045;-88
2023/09/03 06:46:33;;;;;;;20.80;14.10;;;;;;;17.51;52.29;102298.25;5022181;28;20064;-87
2023/09/03 07:19:03;;;;;;;19.85;13.50;;;;;;;17.65;53.20;102356.84;4905416;28;20043;-86
2023/09/03 07:21:38;;;;;;;19.80;13.80;;;;;;;17.64;52.66;102349.56;5006070;28;20049;-84
2023/09/03 07:24:07;;;;;;;19.83;13.75;;;;;;;17.69;52.49;102354.66;5016528;28;20063;-85
2023/09/03 07:26:37;;;;;;;20.20;13.90;;;;;;;17.72;52.13;102354.38;5032749;28;20045;-84
2023/09/03 07:29:06;;;;;;;18.95;13.60;;;;;;;17.72;52.69;102362.69;5033089;28;20124;-85
2023/09/03 07:31:37;;;;;;;18.52;12.75;;;;;;;17.74;52.49;102355.13;5030552;28;20044;-85
2023/09/03 07:34:05;;;;;;;19.98;13.52;;;;;;;17.76;52.60;102353.09;5035735;28;20049;-85
2023/09/03 07:36:33;;;;;;;20.40;14.38;;;;;;;17.79;52.56;102357.47;5029346;28;20041;-85
2023/09/03 07:39:03;;;;;;;21.13;14.27;;;;;;;17.81;52.63;102356.31;5025965;28;20037;-86
2023/09/03 07:41:32;;;;;;;19.80;14.23;;;;;;;17.84;52.73;102367.09;5030263;28;20104;-86
2023/09/03 07:44:02;;;;;;;18.38;12.50;;;;;;;17.87;52.50;102371.47;5030620;28;20040;-85
2023/09/03 07:46:30;;;;;;;19.33;13.95;;;;;;;17.88;52.56;102378.75;5028677;28;20114;-85
2023/09/03 07:48:59;;;;;;;19.63;14.45;;;;;;;17.90;52.45;102390.53;5021803;28;20122;-85
2023/09/03 07:51:27;;;;;;;18.20;12.63;;;;;;;17.92;52.46;102386.63;5022748;28;20063;-85
2023/09/03 07:53:55;;;;;;;19.60;13.55;;;;;;;17.95;52.86;102391.00;5010612;28;20051;-85
2023/09/03 07:56:24;;;;;;;19.38;13.75;;;;;;;17.98;52.83;102386.03;5006034;28;20139;-85
2023/09/03 07:58:52;;;;;;;19.65;13.77;;;;;;;18.01;53.09;102380.22;5025703;28;20045;-85
2023/09/03 08:01:22;;;;;;;20.02;13.98;;;;;;;18.07;52.97;102381.50;5024085;28;20076;-85
2023/09/03 08:03:50;;;;;;;20.52;13.60;;;;;;;18.09;53.51;102374.81;5025759;28;20467;-85
2023/09/03 08:06:18;;;;;;;18.95;13.00;;;;;;;18.14;53.28;102378.00;5025510;28;20090;-85
2023/09/03 08:08:53;;;;;;;17.60;12.10;;;;;;;18.22;53.52;102381.97;5023662;28;20112;-85
2023/09/03 08:11:25;;;;;;;19.15;12.85;;;;;;;18.29;53.54;102380.34;5029808;28;20532;-84
2023/09/03 08:26:17;;;;;;;14.15;9.93;;;;;;;18.78;53.76;102382.88;4812747;29;20049;-86
2023/09/03 08:28:46;;;;;;;16.08;11.27;;;;;;;18.90;53.63;102389.97;4983797;28;20122;-76
2023/09/03 08:31:14;;;;;;;14.85;10.90;;;;;;;19.03;53.56;102383.22;4951820;28;20047;-77
2023/09/03 08:33:42;;;;;;;16.02;11.40;;;;;;;19.13;53.37;102381.25;4990043;28;20582;-76
2023/09/03 08:36:10;;;;;;;16.35;11.35;;;;;;;19.23;53.23;102384.88;5010646;28;20608;-77
2023/09/03 08:38:39;;;;;;;16.60;12.27;;;;;;;19.34;52.99;102387.44;5009647;28;20046;-77
2023/09/03 08:41:07;;;;;;;15.05;10.98;;;;;;;19.42;53.04;102382.00;5011407;28;20058;-77
2023/09/03 08:43:38;;;;;;;15.90;11.70;;;;;;;19.51;52.85;102389.38;5015222;28;20325;-77
2023/09/03 08:46:11;;;;;;;15.80;11.25;;;;;;;19.62;52.35;102382.75;4996480;28;20104;-78
2023/09/03 08:48:40;;;;;;;16.02;11.23;;;;;;;19.71;52.65;102389.25;4995950;28;20073;-75
2023/09/03 08:51:09;;;;;;;16.42;11.10;;;;;;;19.79;52.46;102395.75;5004717;28;20045;-61
2023/09/03 08:53:39;;;;;;;16.73;11.75;;;;;;;19.87;52.14;102381.09;5014343;28;20042;-61
2023/09/03 08:56:08;;;;;;;15.18;11.35;;;;;;;19.94;51.79;102385.88;5006113;28;20042;-61
2023/09/03 08:58:36;;;;;;;14.65;9.73;;;;;;;20.00;51.80;102389.94;5005680;28;20641;-61
2023/09/03 09:01:06;;;;;;;16.25;11.23;;;;;;;20.10;51.64;102396.28;5011347;28;20481;-62
2023/09/03 09:03:36;;;;;;;15.30;11.43;;;;;;;20.16;51.85;102383.63;5009635;28;20037;-61
2023/09/03 09:06:08;;;;;;;14.60;10.63;;;;;;;20.25;51.47;102379.91;5006526;28;20108;-61
2023/09/03 09:08:36;;;;;;;13.37;9.50;;;;;;;20.30;51.55;102377.50;5005930;28;20049;-61
2023/09/03 09:11:14;;;;;;;15.52;10.60;;;;;;;20.42;50.66;102376.22;5006486;28;20050;-62
2023/09/03 09:13:51;;;;;;;11.90;8.77;;;;;;;20.49;50.20;102377.31;5006886;28;20104;-60
2023/09/03 09:16:20;;;;;;;10.50;8.00;;;;;;;20.55;50.39;102373.84;5003613;28;20436;-62
2023/09/03 09:18:48;;;;;;;11.02;8.23;;;;;;;20.62;50.21;102366.63;5004593;28;20061;-61
2023/09/03 09:21:17;;;;;;;12.15;7.88;;;;;;;20.69;49.70;102376.09;5005942;28;20045;-61
2023/09/03 09:23:45;;;;;;;11.13;8.35;;;;;;;20.77;49.42;102369.69;5007701;28;20401;-62
2023/09/03 09:26:19;;;;;;;11.40;8.70;;;;;;;20.86;47.88;102374.25;5009237;28;20045;-62
2023/09/03 09:29:00;;;;;;;9.88;6.65;;;;;;;20.92;47.77;102369.94;5002626;28;20072;-61
2023/09/03 09:31:30;;;;;;;8.98;6.45;;;;;;;20.99;48.84;102371.03;5005835;28;20050;-61
2023/09/03 09:34:00;;;;;;;8.25;6.18;;;;;;;21.08;48.70;102373.69;5006063;28;20050;-61
2023/09/03 09:36:30;;;;;;;8.25;6.40;;;;;;;21.15;48.67;102371.09;5005082;28;20046;-61
2023/09/03 09:39:05;;;;;;;9.82;7.82;;;;;;;21.26;47.00;102370.84;5006255;28;20409;-61
2023/09/03 09:41:37;;;;;;;10.82;7.63;;;;;;;21.34;48.07;102378.34;5007355;28;20049;-61
2023/09/03 09:44:10;;;;;;;9.98;7.05;;;;;;;21.39;46.71;102382.34;5006757;28;20615;-60
2023/09/03 09:46:39;;;;;;;7.88;6.25;;;;;;;21.46;47.36;102386.19;5004323;28;20084;-60
2023/09/03 09:49:08;;;;;;;9.65;6.97;;;;;;;21.51;46.59;102380.16;5003379;28;20056;-60
2023/09/03 09:51:35;;;;;;;8.80;6.20;;;;;;;21.57;46.26;102382.25;5007863;28;20050;-60
2023/09/03 09:54:05;;;;;;;7.28;5.22;;;;;;;21.64;46.09;102391.66;5007012;28;20116;-61
2023/09/03 09:56:35;;;;;;;8.57;5.93;;;;;;;21.70;46.41;102390.09;5010882;28;20092;-60
2023/09/03 09:59:04;;;;;;;9.20;6.05;;;;;;;21.76;46.34;102390.31;5008302;28;20057;-59
2023/09/03 10:01:46;;;;;;;6.85;5.03;;;;;;;21.85;44.85;102385.59;5009793;28;20077;-61
2023/09/03 10:04:14;;;;;;;6.63;4.93;;;;;;;21.87;46.38;102380.72;5010829;28;20760;-61
2023/09/03 10:06:43;;;;;;;6.30;4.80;;;;;;;21.98;45.96;102372.06;5007637;28;20046;-62
2023/09/03 10:09:11;;;;;;;6.75;4.43;;;;;;;22.05;45.23;102380.59;5006529;28;20395;-62
2023/09/03 10:11:40;;;;;;;5.50;4.15;;;;;;;22.13;44.66;102384.25;5013264;28;20057;-62
2023/09/03 10:14:08;;;;;;;5.82;3.60;;;;;;;22.17;44.72;102368.06;4985814;28;20117;-61
2023/09/03 10:16:37;;;;;;;7.55;4.55;;;;;;;22.24;44.54;102369.09;5009594;28;20416;-61
2023/09/03 10:19:10;;;;;;;5.72;4.10;;;;;;;22.33;44.32;102376.44;5009111;28;20497;-68
2023/09/03 10:21:40;;;;;;;5.10;4.05;;;;;;;22.38;44.22;102373.09;5009502;28;20080;-60
2023/09/03 10:24:22;;;;;;;5.68;4.32;;;;;;;22.45;43.98;102376.91;5008948;28;20046;-72
2023/09/03 10:26:57;;;;;;;4.85;3.67;;;;;;;22.53;43.29;102371.31;5032008;23;20073;-73
2023/09/03 10:29:27;;;;;;;4.60;3.35;;;;;;;22.58;44.16;102374.50;5039589;28;20041;-74
2023/09/03 10:32:00;;;;;;;4.88;3.00;;;;;;;22.66;43.95;102374.50;5027954;28;20175;-74
2023/09/03 10:34:30;;;;;;;4.80;3.20;;;;;;;22.71;43.71;102374.81;5031357;28;20542;-74
2023/09/03 10:37:07;;;;;;;4.65;3.42;;;;;;;22.80;41.72;102373.75;5016794;28;20065;-75
2023/09/03 10:39:37;;;;;;;5.30;3.40;;;;;;;22.83;42.24;102373.41;5027118;28;20045;-74
2023/09/03 10:42:30;;;;;;;5.18;3.50;;;;;;;22.86;40.83;102367.44;5010816;28;20042;-72
2023/09/03 10:45:00;;;;;;;5.13;3.13;;;;;;;22.89;41.95;102366.22;5012469;28;20041;-72
2023/09/03 10:47:28;;;;;;;4.28;2.97;;;;;;;22.93;41.76;102357.31;4998515;28;20481;-72
2023/09/03 10:49:56;;;;;;;5.07;3.70;;;;;;;22.96;41.54;102359.75;4999047;28;20462;-73
2023/09/03 10:52:40;;;;;;;4.30;3.40;;;;;;;23.03;40.64;102357.09;4993547;28;20057;-73
2023/09/03 10:55:13;;;;;;;5.20;3.17;;;;;;;23.05;40.89;102357.78;5010526;28;20060;-72
2023/09/03 10:57:45;;;;;;;3.90;2.80;;;;;;;23.09;41.75;102350.78;5010632;28;20052;-73
2023/09/03 11:00:21;;;;;;;5.17;3.53;;;;;;;23.13;40.06;102354.09;4999507;28;20057;-74
2023/09/03 11:02:49;;;;;;;3.90;3.15;;;;;;;23.14;41.35;102353.91;5010559;28;20521;-73
2023/09/03 11:05:20;;;;;;;5.22;3.97;;;;;;;23.21;40.84;102354.09;5010767;28;20046;-74
2023/09/03 11:07:50;;;;;;;5.93;3.97;;;;;;;23.24;40.37;102354.59;5009775;28;20033;-73
2023/09/03 11:10:40;;;;;;;6.03;4.20;;;;;;;23.26;39.67;102354.41;5011302;28;20042;-74
2023/09/03 11:13:11;;;;;;;5.53;4.10;;;;;;;23.31;40.20;102360.31;5010708;28;20054;-74
2023/09/03 11:15:57;;;;;;;5.72;3.28;;;;;;;23.31;40.35;102351.94;5004986;28;20050;-76
2023/09/03 11:18:27;;;;;;;5.60;3.40;;;;;;;23.35;40.31;102356.97;5013793;28;20457;-75
2023/09/03 11:20:56;;;;;;;5.30;3.30;;;;;;;23.38;40.00;102365.00;5011770;28;20045;-76
2023/09/03 11:23:27;;;;;;;4.15;2.42;;;;;;;23.41;39.99;102357.31;5032332;28;20119;-77
2023/09/03 11:26:00;;;;;;;3.53;1.95;;;;;;;23.43;40.08;102353.25;5025372;28;20037;-75
2023/09/03 11:28:35;;;;;;;3.42;2.30;;;;;;;23.50;38.96;102359.84;5003170;28;20108;-75
2023/09/03 11:31:03;;;;;;;3.58;2.40;;;;;;;23.50;39.46;102362.66;5020513;28;20705;-75
2023/09/03 11:33:32;;;;;;;4.13;2.83;;;;;;;23.55;39.06;102360.19;5028399;28;20052;-76
2023/09/03 11:36:00;;;;;;;3.65;2.47;;;;;;;23.58;38.84;102357.00;5031578;28;20048;-76
2023/09/03 11:38:32;;;;;;;3.15;2.25;;;;;;;23.62;38.52;102361.19;5010919;28;20080;-75
2023/09/03 11:41:00;;;;;;;2.85;2.05;;;;;;;23.62;38.50;102357.53;5009648;28;20443;-76
2023/09/03 11:43:29;;;;;;;2.90;1.83;;;;;;;23.68;38.41;102352.06;5003393;28;20041;-75
2023/09/03 11:46:00;;;;;;;3.47;2.13;;;;;;;23.70;37.42;102351.88;5035569;28;20075;-75
2023/09/03 11:48:36;;;;;;;2.90;2.03;;;;;;;23.71;36.87;102348.03;5029949;28;20072;-74
2023/09/03 11:51:04;;;;;;;2.67;1.85;;;;;;;23.70;37.06;102343.50;5029036;28;20104;-74
2023/09/03 11:53:39;;;;;;;3.78;2.17;;;;;;;23.76;36.14;102345.56;5028226;28;20897;-76
2023/09/03 11:56:09;;;;;;;3.60;2.03;;;;;;;23.74;36.78;102342.91;5028177;28;20052;-77
2023/09/03 11:58:39;;;;;;;3.20;2.35;;;;;;;23.75;37.01;102343.78;5035094;28;20042;-76
2023/09/03 12:01:09;;;;;;;2.72;1.98;;;;;;;23.76;36.77;102342.78;5029018;28;20029;-76
2023/09/03 12:03:39;;;;;;;3.22;2.03;;;;;;;23.75;36.43;102341.00;5026982;28;20562;-77
2023/09/03 12:06:07;;;;;;;2.72;1.92;;;;;;;23.74;36.37;102340.13;5031675;28;20166;-76
2023/09/03 12:08:35;;;;;;;3.17;1.90;;;;;;;23.75;36.38;102338.19;5027322;28;20069;-75
2023/09/03 12:11:03;;;;;;;3.60;2.25;;;;;;;23.76;35.71;102349.22;5016389;28;20179;-74
2023/09/03 12:13:32;;;;;;;4.85;2.55;;;;;;;23.77;36.07;102341.72;5032347;28;20049;-74
2023/09/03 12:16:05;;;;;;;3.28;1.85;;;;;;;23.79;35.62;102344.34;5009468;28;20042;-74
2023/09/03 12:18:36;;;;;;;3.78;2.00;;;;;;;23.79;36.36;102356.38;5008517;28;20049;-74
2023/09/03 12:21:05;;;;;;;3.70;2.08;;;;;;;23.76;36.32;102349.22;5025927;28;20045;-73
2023/09/03 12:23:34;;;;;;;2.70;2.00;;;;;;;23.79;36.00;102349.94;5025749;28;20057;-75
2023/09/03 12:26:02;;;;;;;2.50;1.75;;;;;;;23.79;35.68;102350.81;5027093;28;20046;-75
2023/09/03 12:28:35;;;;;;;2.80;1.88;;;;;;;23.82;35.41;102352.38;5026678;28;20045;-76
2023/09/03 12:31:04;;;;;;;3.22;2.10;;;;;;;23.80;36.17;102346.94;5029914;28;20040;-74
2023/09/03 12:33:48;;;;;;;3.50;2.60;;;;;;;23.79;35.03;102350.81;5045579;28;20076;-75
2023/09/03 12:36:18;;;;;;;2.90;2.20;;;;;;;23.80;36.00;102357.25;5047132;28;20526;-74
2023/09/03 12:38:53;;;;;;;3.88;2.00;;;;;;;23.82;36.06;102347.66;5034505;28;20547;-75
2023/09/03 12:41:21;;;;;;;3.35;2.13;;;;;;;23.80;35.76;102349.75;5035584;28;20041;-75
2023/09/03 12:43:49;;;;;;;3.20;2.30;;;;;;;23.79;35.87;102355.50;5011548;28;20041;-75
2023/09/03 12:46:18;;;;;;;3.53;2.28;;;;;;;23.79;35.87;102359.19;5027323;28;20081;-72
2023/09/03 12:48:47;;;;;;;2.75;2.15;;;;;;;23.81;35.78;102362.66;5025997;28;20107;-75
2023/09/03 12:51:17;;;;;;;2.70;1.98;;;;;;;23.81;35.77;102362.66;5030641;28;20088;-74
2023/09/03 12:53:47;;;;;;;3.92;2.10;;;;;;;23.79;35.45;102355.50;5026267;28;20046;-75
2023/09/03 12:56:16;;;;;;;2.90;2.00;;;;;;;23.77;35.16;102359.38;5010226;28;20045;-75
2023/09/03 12:58:46;;;;;;;2.92;1.73;;;;;;;23.77;34.88;102350.97;5028261;28;20048;-74
2023/09/03 13:01:15;;;;;;;3.25;1.90;;;;;;;23.77;35.22;102353.78;5047405;28;20136;-75
2023/09/03 13:03:44;;;;;;;4.45;2.50;;;;;;;23.76;34.69;102348.38;5028567;28;20041;-75
2023/09/03 13:06:13;;;;;;;3.10;2.10;;;;;;;23.76;34.80;102351.16;5046385;28;20057;-74
2023/09/03 13:08:43;;;;;;;2.60;1.83;;;;;;;23.72;34.71;102350.66;5045314;28;20040;-73
2023/09/03 13:11:11;;;;;;;3.13;1.80;;;;;;;23.71;34.70;102342.44;5040430;28;20045;-73
2023/09/03 13:13:40;;;;;;;3.17;1.80;;;;;;;23.70;34.85;102347.16;5038175;28;20048;-73
2023/09/03 13:16:08;;;;;;;3.03;2.00;;;;;;;23.70;34.73;102337.91;5046317;28;20056;-73
2023/09/03 13:18:36;;;;;;;2.50;1.77;;;;;;;23.69;34.74;102353.81;5037193;28;20056;-74
2023/09/03 13:21:06;;;;;;;2.92;1.88;;;;;;;23.68;35.03;102343.66;4989161;28;20493;-74
2023/09/03 13:23:35;;;;;;;3.53;2.20;;;;;;;23.71;34.49;102360.09;4997886;28;20126;-74
2023/09/03 13:26:03;;;;;;;3.10;1.90;;;;;;;23.68;34.37;102357.66;5024655;28;20049;-74
2023/09/03 13:28:32;;;;;;;2.92;1.80;;;;;;;23.70;34.53;102354.66;5047092;28;20043;-74
2023/09/03 13:31:01;;;;;;;2.95;1.83;;;;;;;23.71;34.89;102353.63;5033717;28;20112;-74
2023/09/03 13:33:36;;;;;;;2.55;1.90;;;;;;;23.72;34.55;102355.38;5038431;28;20049;-75
2023/09/03 13:36:06;;;;;;;2.47;2.00;;;;;;;23.73;34.96;102351.53;5040714;28;20718;-74
2023/09/03 13:38:36;;;;;;;2.40;1.70;;;;;;;23.76;34.92;102357.63;5038180;28;20408;-74
2023/09/03 13:41:04;;;;;;;2.78;1.77;;;;;;;23.77;34.87;102358.50;5010279;28;20173;-74
2023/09/03 13:43:33;;;;;;;2.60;1.98;;;;;;;23.79;34.16;102350.81;5027774;28;20575;-74
2023/09/03 13:46:02;;;;;;;2.60;2.00;;;;;;;23.82;34.44;102361.63;5010084;28;20037;-74
2023/09/03 13:48:30;;;;;;;2.88;1.80;;;;;;;23.82;34.21;102358.81;5028093;28;20448;-74
2023/09/03 13:50:58;;;;;;;2.45;1.60;;;;;;;23.83;34.18;102360.53;5011836;28;20543;-75
2023/09/03 13:53:26;;;;;;;3.28;2.08;;;;;;;23.83;33.75;102356.88;5027689;28;20745;-74
2023/09/03 13:56:04;;;;;;;2.90;1.90;;;;;;;23.86;32.99;102362.09;5027581;28;20685;-74
2023/09/03 13:58:33;;;;;;;3.00;2.13;;;;;;;23.83;33.90;102359.66;5022196;28;20660;-74
2023/09/03 14:01:00;;;;;;;2.70;1.90;;;;;;;23.82;33.33;102358.81;5008923;28;20042;-74
2023/09/03 14:03:28;;;;;;;2.58;1.70;;;;;;;23.81;33.53;102357.09;5013678;28;20068;-74
2023/09/03 14:06:06;;;;;;;2.53;1.83;;;;;;;23.84;33.09;102350.22;5012904;28;20034;-73
2023/09/03 14:08:35;;;;;;;3.28;1.88;;;;;;;23.79;33.45;102352.72;5027133;28;20069;-74
2023/09/03 14:11:04;;;;;;;3.28;1.90;;;;;;;23.80;33.54;102352.53;5010062;28;20057;-74
2023/09/03 14:13:32;;;;;;;4.53;2.20;;;;;;;23.77;33.20;102356.56;5027543;28;20046;-74
2023/09/03 14:16:00;;;;;;;3.55;2.20;;;;;;;23.77;33.17;102347.31;5010015;28;20578;-74
2023/09/03 14:18:28;;;;;;;2.90;1.85;;;;;;;23.75;33.26;102347.47;5027229;28;20731;-74
2023/09/03 14:20:56;;;;;;;2.80;1.70;;;;;;;23.74;33.46;102348.50;5027322;28;20045;-74
2023/09/03 14:23:24;;;;;;;2.65;1.83;;;;;;;23.73;33.39;102344.00;5009555;28;20430;-74
2023/09/03 14:25:52;;;;;;;2.95;2.28;;;;;;;23.71;33.35;102334.94;5026987;28;20041;-74
2023/09/03 14:28:21;;;;;;;2.67;1.85;;;;;;;23.72;33.38;102330.19;5009316;28;20080;-74
2023/09/03 14:30:50;;;;;;;3.45;2.47;;;;;;;23.70;33.22;102329.50;5028227;28;20053;-74
2023/09/03 14:33:18;;;;;;;2.97;2.13;;;;;;;23.68;33.31;102338.06;5027494;28;20416;-74
2023/09/03 14:35:50;;;;;;;3.33;2.20;;;;;;;23.65;33.15;102341.25;5027606;28;20045;-74
2023/09/03 14:38:18;;;;;;;3.17;1.88;;;;;;;23.67;33.23;102338.25;5026314;28;20042;-73
2023/09/03 14:40:50;;;;;;;3.25;2.10;;;;;;;23.69;32.75;102342.63;5008957;28;20053;-73
2023/09/03 14:43:18;;;;;;;2.83;2.00;;;;;;;23.62;33.23;102336.03;5012383;28;20049;-74
2023/09/03 14:45:47;;;;;;;3.40;2.28;;;;;;;23.66;32.92;102340.19;5031353;28;20174;-74
2023/09/03 14:48:15;;;;;;;3.00;2.00;;;;;;;23.63;33.21;102346.16;5013129;28;20065;-75
2023/09/03 14:50:43;;;;;;;3.38;2.00;;;;;;;23.63;33.41;102345.28;5012857;28;20129;-74
2023/09/03 14:53:11;;;;;;;3.10;2.10;;;;;;;23.62;33.46;102335.16;5013067;28;20531;-74
2023/09/03 14:55:42;;;;;;;2.70;2.00;;;;;;;23.64;32.94;102335.84;5030877;28;20069;-74
2023/09/03 14:58:10;;;;;;;3.60;2.30;;;;;;;23.61;33.21;102339.88;5031245;28;20041;-74
2023/09/03 15:00:38;;;;;;;3.15;2.17;;;;;;;23.61;32.86;102336.22;5030456;28;20145;-74
2023/09/03 15:03:07;;;;;;;3.22;2.15;;;;;;;23.63;32.57;102334.09;5014132;28;20095;-75
2023/09/03 15:05:36;;;;;;;3.10;2.20;;;;;;;23.58;32.58;102326.25;5030922;28;20072;-75
2023/09/03 15:08:04;;;;;;;3.03;2.25;;;;;;;23.58;32.59;102329.06;5030573;28;20504;-75
2023/09/03 15:10:32;;;;;;;3.42;2.10;;;;;;;23.55;32.55;102329.44;5029153;28;20065;-75
2023/09/03 15:13:00;;;;;;;3.78;2.20;;;;;;;23.54;32.57;102338.00;5030655;28;20092;-73
2023/09/03 15:15:28;;;;;;;2.80;2.00;;;;;;;23.52;32.55;102338.19;5029902;28;20571;-73
2023/09/03 15:17:56;;;;;;;3.85;2.10;;;;;;;23.50;32.44;102337.50;5018856;28;20049;-73
2023/09/03 15:20:27;;;;;;;3.22;2.13;;;;;;;23.52;32.57;102337.31;4992693;28;20061;-74
2023/09/03 15:22:55;;;;;;;3.17;1.92;;;;;;;23.48;32.48;102336.84;5009070;28;20045;-73
2023/09/03 15:25:23;;;;;;;3.10;2.25;;;;;;;23.46;32.34;102336.13;5010586;28;20046;-74
2023/09/03 15:27:51;;;;;;;2.90;2.10;;;;;;;23.46;32.24;102332.47;4992642;28;20058;-73
2023/09/03 15:30:21;;;;;;;4.40;2.30;;;;;;;23.42;32.21;102334.75;4992444;28;20045;-73
2023/09/03 15:32:50;;;;;;;2.92;2.00;;;;;;;23.42;32.08;102337.53;5027420;28;20420;-73
2023/09/03 15:35:18;;;;;;;3.22;2.17;;;;;;;23.39;31.99;102329.56;5029815;28;20042;-73
2023/09/03 15:37:48;;;;;;;3.78;2.17;;;;;;;23.39;31.98;102338.81;5029207;28;20041;-73
2023/09/03 15:40:16;;;;;;;4.53;2.38;;;;;;;23.36;32.57;102336.38;5029945;28;20049;-59
2023/09/03 15:42:43;;;;;;;4.32;2.85;;;;;;;23.35;32.40;102334.63;5030065;28;20047;-61
2023/09/03 15:45:11;;;;;;;3.92;3.00;;;;;;;23.33;31.98;102333.09;5030404;28;20052;-58
2023/09/03 15:47:39;;;;;;;5.90;2.38;;;;;;;23.29;32.33;102329.78;5024492;28;20042;-64
2023/09/03 15:50:08;;;;;;;4.03;2.45;;;;;;;23.27;32.62;102331.88;5026697;28;20051;-61
2023/09/03 15:52:36;;;;;;;3.85;2.53;;;;;;;23.25;32.88;102339.56;5025002;28;20405;-60
2023/09/03 15:55:06;;;;;;;4.18;2.50;;;;;;;23.27;32.89;102339.38;5023193;28;20045;-60
2023/09/03 15:57:34;;;;;;;3.63;2.55;;;;;;;23.22;32.90;102339.06;5030685;28;20128;-59
2023/09/03 16:00:04;;;;;;;4.47;2.83;;;;;;;23.21;32.84;102342.91;5024515;28;20091;-59
2023/09/03 16:02:32;;;;;;;3.13;2.20;;;;;;;23.18;32.64;102334.88;5029425;28;20045;-66
2023/09/03 16:05:00;;;;;;;3.67;2.35;;;;;;;23.17;32.54;102336.81;5025475;28;20600;-58
2023/09/03 16:07:28;;;;;;;3.65;2.47;;;;;;;23.16;32.47;102350.97;5027590;28;20179;-56
2023/09/03 16:09:56;;;;;;;3.60;2.35;;;;;;;23.14;32.39;102336.28;5028158;28;20529;-56
2023/09/03 16:12:26;;;;;;;3.40;2.40;;;;;;;23.12;32.22;102342.03;5029769;28;20470;-54
2023/09/03 16:14:54;;;;;;;3.55;2.78;;;;;;;23.08;32.18;102340.69;5030586;28;20049;-59
2023/09/03 16:17:22;;;;;;;4.90;2.83;;;;;;;23.06;32.31;102344.69;5021667;28;20100;-59
2023/09/03 16:19:50;;;;;;;3.72;2.83;;;;;;;23.01;32.26;102337.72;5033565;28;20629;-59
2023/09/03 16:22:18;;;;;;;3.60;2.45;;;;;;;22.98;32.23;102340.03;5026909;28;20057;-59
2023/09/03 16:24:46;;;;;;;3.33;2.25;;;;;;;22.95;32.03;102340.38;5027119;28;20124;-56
2023/09/03 16:27:14;;;;;;;3.40;2.60;;;;;;;22.93;32.88;102334.09;5097944;22;21200;-57
2023/09/03 16:29:47;;;;;;;4.10;2.50;;;;;;;22.93;32.29;102340.53;5035196;28;20110;-59
2023/09/03 16:32:16;;;;;;;4.05;2.20;;;;;;;22.88;32.42;102339.34;5037622;28;20052;-58
2023/09/03 16:34:49;;;;;;;3.40;2.45;;;;;;;22.88;32.43;102337.44;5018704;28;20329;-61
2023/09/03 16:37:18;;;;;;;3.78;2.47;;;;;;;22.83;32.41;102334.31;5013950;28;20132;-60
2023/09/03 16:39:50;;;;;;;3.55;2.67;;;;;;;22.82;32.46;102348.47;5026078;28;20622;-60
2023/09/03 16:42:18;;;;;;;3.70;2.40;;;;;;;22.79;32.28;102346.88;5009400;28;20488;-60
2023/09/03 16:44:49;;;;;;;4.75;2.70;;;;;;;22.78;32.51;102345.13;5024525;28;20067;-59
2023/09/03 16:47:17;;;;;;;4.38;2.40;;;;;;;22.75;32.55;102341.84;5022986;28;20811;-60
2023/09/03 16:49:47;;;;;;;3.53;2.53;;;;;;;22.72;32.72;102345.88;5025067;28;20172;-60
2023/09/03 16:52:15;;;;;;;3.30;2.30;;;;;;;22.71;32.53;102340.47;5026779;28;20065;-61
2023/09/03 16:54:43;;;;;;;3.67;2.55;;;;;;;22.69;32.68;102346.22;5026654;28;20053;-57
2023/09/03 16:57:11;;;;;;;3.65;2.50;;;;;;;22.68;32.73;102347.25;5027136;28;20123;-63
2023/09/03 16:59:39;;;;;;;3.40;2.13;;;;;;;22.67;32.89;102341.88;5023905;28;20286;-62
2023/09/03 17:02:12;;;;;;;3.53;2.40;;;;;;;22.68;32.88;102338.88;5026092;28;20060;-62
2023/09/03 17:04:41;;;;;;;3.28;2.30;;;;;;;22.65;32.86;102344.84;5023541;28;20538;-61
2023/09/03 17:07:10;;;;;;;3.38;2.30;;;;;;;22.63;33.25;102345.00;5026268;28;20077;-60
2023/09/03 17:09:38;;;;;;;4.32;2.67;;;;;;;22.63;32.63;102346.94;5027083;28;20160;-61
2023/09/03 17:12:07;;;;;;;3.20;2.33;;;;;;;22.63;33.00;102344.16;5027119;28;20075;-60
2023/09/03 17:14:34;;;;;;;2.83;2.10;;;;;;;22.61;33.08;102335.94;5026632;28;20073;-62
2023/09/03 17:17:05;;;;;;;2.90;2.03;;;;;;;22.60;33.29;102337.00;5026863;28;20136;-62
2023/09/03 17:19:35;;;;;;;3.10;2.03;;;;;;;22.61;33.17;102335.94;5028346;28;20054;-61
2023/09/03 17:22:03;;;;;;;3.80;2.63;;;;;;;22.58;32.94;102339.13;5029360;28;20041;-63
2023/09/03 17:24:32;;;;;;;3.42;2.58;;;;;;;22.56;32.84;102331.97;5028936;28;20099;-61
2023/09/03 17:27:00;;;;;;;4.25;2.90;;;;;;;22.54;33.07;102331.25;5042387;28;20041;-60
2023/09/03 17:29:29;;;;;;;4.43;3.08;;;;;;;22.52;32.89;102328.59;5048077;28;20397;-62
2023/09/03 17:31:57;;;;;;;4.07;2.70;;;;;;;22.50;33.03;102325.16;5048659;28;20049;-59
2023/09/03 17:34:26;;;;;;;3.85;2.90;;;;;;;22.49;32.86;102328.97;5049048;28;20053;-64
2023/09/03 17:36:56;;;;;;;3.78;2.55;;;;;;;22.47;32.71;102331.06;5038866;28;20551;-60
2023/09/03 17:39:23;;;;;;;4.43;2.65;;;;;;;22.43;32.93;102337.16;5028453;28;20544;-58
2023/09/03 17:41:51;;;;;;;4.53;2.97;;;;;;;22.39;32.95;102333.00;5027879;28;20045;-61
2023/09/03 17:44:19;;;;;;;5.03;3.42;;;;;;;22.36;33.06;102333.34;5028280;28;20128;-61
2023/09/03 17:46:47;;;;;;;5.03;3.22;;;;;;;22.33;33.09;102336.50;5028386;28;20060;-62
2023/09/03 17:49:15;;;;;;;4.90;3.00;;;;;;;22.29;32.98;102338.75;5028397;28;20049;-60
2023/09/03 17:51:43;;;;;;;4.18;2.92;;;;;;;22.25;32.99;102343.84;5028379;28;20061;-60
2023/09/03 17:54:12;;;;;;;5.50;2.90;;;;;;;22.25;32.96;102337.38;5028375;28;20056;-61
2023/09/03 17:56:40;;;;;;;5.18;3.08;;;;;;;22.19;33.14;102330.56;5028296;28;20133;-61
2023/09/03 17:59:08;;;;;;;5.60;3.00;;;;;;;22.15;33.14;102332.00;5028122;28;20103;-61
2023/09/03 18:01:36;;;;;;;4.45;3.30;;;;;;;22.14;33.09;102334.94;5028275;28;20084;-60
2023/09/03 18:04:04;;;;;;;5.40;3.58;;;;;;;22.12;33.00;102337.03;5028186;28;20037;-61
2023/09/03 18:06:32;;;;;;;4.60;3.40;;;;;;;22.08;33.46;102338.44;5028257;28;20060;-61
2023/09/03 18:09:00;;;;;;;5.28;3.50;;;;;;;22.04;33.18;102337.91;5027455;28;20064;-61
2023/09/03 18:11:31;;;;;;;4.97;3.30;;;;;;;22.04;33.23;102329.53;5028372;28;20132;-61
2023/09/03 18:13:59;;;;;;;5.22;3.50;;;;;;;21.99;33.33;102333.91;5027177;28;20041;-63
2023/09/03 18:16:27;;;;;;;4.88;3.20;;;;;;;21.96;33.38;102317.53;5044291;28;20140;-63
2023/09/03 18:18:55;;;;;;;6.18;3.65;;;;;;;21.94;33.39;102334.41;5050656;28;20041;-62
2023/09/03 18:21:23;;;;;;;4.78;3.15;;;;;;;21.92;33.79;102327.28;5051737;28;20140;-62
2023/09/03 18:23:51;;;;;;;4.97;3.95;;;;;;;21.89;33.74;102326.56;5050953;28;20510;-60
2023/09/03 18:26:22;;;;;;;5.38;3.83;;;;;;;21.87;33.76;102323.06;5051984;28;20778;-60
2023/09/03 18:28:51;;;;;;;5.57;3.80;;;;;;;21.87;33.85;102333.34;5051172;28;20140;-62
2023/09/03 18:31:19;;;;;;;5.18;3.85;;;;;;;21.83;34.02;102329.16;5051304;28;20065;-61
2023/09/03 18:33:47;;;;;;;6.88;4.20;;;;;;;21.80;33.72;102324.81;5051535;28;20045;-60
2023/09/03 18:36:15;;;;;;;5.18;3.92;;;;;;;21.77;34.16;102324.25;5051779;28;20049;-62
2023/09/03 18:38:45;;;;;;;6.25;4.10;;;;;;;21.75;33.97;102326.38;5050727;28;20049;-61
2023/09/03 18:41:14;;;;;;;5.72;3.97;;;;;;;21.72;34.13;102327.59;5051515;28;20246;-62
2023/09/03 18:43:42;;;;;;;5.13;3.80;;;;;;;21.71;34.30;102333.31;5050858;28;20045;-61
2023/09/03 18:46:12;;;;;;;4.95;3.70;;;;;;;21.71;34.41;102338.91;5051957;28;20066;-62
2023/09/03 18:48:40;;;;;;;4.72;3.80;;;;;;;21.66;34.62;102324.63;5050596;28;20045;-62